NOAA-Style Climate Reports

Select a Year or Month report
2021: Jan Feb Mar Apr May Jun Jul Aug Sep Oct Nov Dec
2020: Jan Feb Mar Apr May Jun Jul Aug Sep Oct Nov Dec
2019: Jan Feb Mar Apr May Jun Jul Aug Sep Oct Nov Dec
2018: Jan Feb Mar Apr May Jun Jul Aug Sep Oct Nov Dec
2017: Jan Feb Mar Apr May Jun Jul Aug Sep Oct Nov Dec
2016: Jan Feb Mar Apr May Jun Jul Aug Sep Oct Nov Dec

Report for 2021 January
                   Monthly Climatological Summary for Jan 2021

Name: Lockport Weather   City: Lockport   State: NY
Elevation: 625 ft  Lat: N 43° 08' 53"   Lon: W 078° 41' 08"

                  Temperature (°F), Rain (in), Wind Speed (mph)

                                      Heat  Cool        Avg
    Mean                              Deg   Deg         Wind                 Dom
Day Temp  High   Time   Low    Time   Days  Days  Rain  Speed High   Time    Dir
----------------------------------------------------------------------------------
01  30.3  33.5   15:50  24.8   08:26  34.7   0.0  0.05   3.0  15.0   13:35     E
02  32.7  35.4   12:26  31.7   08:12  32.3   0.0  0.58   1.6  10.0   06:32     W
03  32.8  35.4   16:14  31.2   01:55  32.2   0.0  0.06   2.2  11.0   05:17     E
04  33.0  34.7   14:31  31.8   06:29  32.0   0.0  0.00   0.7   7.0   03:19   WNW
05  32.9  36.4   13:17  31.9   07:06  32.1   0.0  0.00   1.1   8.0   15:01    NE
06  32.2  33.5   12:11  31.3   08:59  32.8   0.0  0.00   2.1  12.0   14:23    NW
07  29.4  32.3   00:00  22.8   23:59  35.6   0.0  0.00   1.9  10.0   05:17   NNW
08  23.4  27.2   06:17  18.4   23:56  41.6   0.0  0.00   1.5  10.0   15:50     N
09  26.9  37.9   15:14  16.7   03:51  38.1   0.0  0.00   1.4  10.0   09:29   WNW
10  27.7  32.7   13:10  21.8   23:49  37.3   0.0  0.00   1.1  10.0   14:10    SW
11  30.2  38.4   13:11  21.5   00:42  34.8   0.0  0.03   1.9  16.0   19:40    SW
12  29.9  31.4   00:14  28.8   06:51  35.1   0.0  0.00   2.8  12.0   15:11    SW
13  32.9  37.4   15:25  29.9   07:58  32.1   0.0  0.35   3.3  18.0   13:39   SSW
14  37.2  40.2   14:46  34.6   00:00  27.8   0.0  0.00   1.6  11.0   23:42   SSW
15  38.0  43.0   14:06  34.4   04:41  27.0   0.0  0.09   5.0  14.0   03:52     E
16  33.9  38.7   13:13  28.0   08:22  22.3   0.0  0.02   1.9  13.0   15:48   WSW
17  34.8  34.8   00:00  34.8   00:00   0.0   0.0  0.00  ----   2.0   00:00     N
18  34.8  34.8   00:00  34.8   00:00   0.0   0.0  0.00  ----   2.0   00:00     N
19  34.8  34.8   00:00  34.8   00:00   0.0   0.0  0.00  ----   2.0   00:00     N
20  34.8  34.8   00:00  34.8   00:00   0.0   0.0  0.00  ----   2.0   00:00     N
21  34.8  34.8   00:00  34.8   00:00   0.0   0.0  0.00  ----   2.0   00:00     N
22  34.8  34.8   00:00  34.8   00:00   0.0   0.0  0.00  ----   2.0   00:00     N
23  34.8  34.8   00:00  34.8   00:00   0.0   0.0  0.00  ----   2.0   00:00     N
24  34.8  34.8   00:00  34.8   00:00   0.0   0.0  0.00  ----   2.0   00:00     N
25  34.8  34.8   00:00  34.8   00:00   0.0   0.0  0.00  ----   2.0   00:00     N
26  34.8  34.8   00:00  34.8   00:00   0.0   0.0  0.00  ----   2.0   00:00     N
27  34.8  34.8   00:00  34.8   00:00   0.0   0.0  0.00   2.6   2.0   00:00   WNW
28  34.8  34.8   00:00  34.8   00:00   0.0   0.0  0.00   3.9   2.0   00:00   WNW
29  34.8  34.8   00:00  34.8   00:00   0.0   0.0  0.00   2.6   2.0   00:00    NW
30  34.8  34.8   00:00  34.8   00:00   0.0   0.0  0.00   0.9   2.0   00:00   WSW
31  34.8  34.8   00:00  34.8   00:00   0.0   0.0  0.00   6.0   2.0   00:00   ENE
----------------------------------------------------------------------------------
    33.1  43.0    15    16.7     9   527.8   0.0  1.18   2.3  18.0    13      NW

Max >=  80.0  0
Max <=  32.0  2
Min <=  32.0 14
Min <=   0.0  0
Max Rain: 0.58 on day 2
Days of Rain: 7 (>= 0.01 in)  2 (>= 0.10 in)  0 (>= 1.00 in)
Heat Base: 65.0  Cool Base: 65.0  Method: Integration